Time,TemperatureF,DewpointF,PressureIn,WindDirection,WindDirectionDegrees,WindSpeedMPH,WindSpeedGustMPH,Humidity,HourlyPrecipIn,Conditions,Clouds,dailyrainin,SolarRadiationWatts/m^2,SoftwareType,DateUTC
2013-01-15 00:03:00,60.0,60.0,-100.00,NNE,32,4.0,7.0,100,0.06,,,0.51,0.000000,,2013-01-15 05:03:00,
2013-01-15 00:22:00,57.0,56.0,-100.00,NNE,21,4.0,10.0,98,0.14,,,0.65,0.000000,,2013-01-15 05:22:00,
2013-01-15 00:33:00,57.0,56.0,-100.00,NNE,21,4.0,10.0,98,0.14,,,0.65,0.000000,,2013-01-15 05:33:00,
2013-01-15 00:42:00,57.0,56.0,-100.00,NNE,21,4.0,10.0,98,0.14,,,0.65,0.000000,,2013-01-15 05:42:00,
2013-01-15 00:53:00,57.0,56.0,-100.00,NNE,21,4.0,10.0,98,0.14,,,0.65,0.000000,,2013-01-15 05:53:00,
2013-01-15 01:02:00,57.0,56.0,-100.00,NNE,21,4.0,10.0,98,0.14,,,0.65,0.000000,,2013-01-15 06:02:00,
2013-01-15 01:22:00,53.0,52.0,-100.00,NE,50,3.0,11.0,98,0.08,,,0.73,0.000000,,2013-01-15 06:22:00,
2013-01-15 01:33:00,53.0,52.0,-100.00,NE,50,3.0,11.0,98,0.08,,,0.73,0.000000,,2013-01-15 06:33:00,
2013-01-15 01:43:00,53.0,52.0,-100.00,NE,50,3.0,11.0,98,0.08,,,0.73,0.000000,,2013-01-15 06:43:00,
2013-01-15 01:53:00,53.0,52.0,-100.00,NE,50,3.0,11.0,98,0.08,,,0.73,0.000000,,2013-01-15 06:53:00,
2013-01-15 02:02:00,53.0,52.0,-100.00,NE,50,3.0,11.0,98,0.08,,,0.73,0.000000,,2013-01-15 07:02:00,
2013-01-15 02:33:00,52.0,51.0,-100.00,NE,44,3.0,10.0,98,0.00,,,0.73,0.000000,,2013-01-15 07:33:00,
2013-01-15 02:43:00,52.0,51.0,-100.00,NE,44,3.0,10.0,98,0.00,,,0.73,0.000000,,2013-01-15 07:43:00,
2013-01-15 02:53:00,52.0,51.0,-100.00,NE,44,3.0,10.0,98,0.00,,,0.73,0.000000,,2013-01-15 07:53:00,
2013-01-15 03:02:00,52.0,51.0,-100.00,NE,44,3.0,10.0,98,0.00,,,0.73,0.000000,,2013-01-15 08:02:00,
2013-01-15 03:33:00,51.0,50.0,-100.00,NE,47,3.0,11.0,98,0.06,,,0.79,0.000000,,2013-01-15 08:33:00,
2013-01-15 03:43:00,51.0,50.0,-100.00,NE,47,3.0,11.0,98,0.06,,,0.79,0.000000,,2013-01-15 08:43:00,
2013-01-15 03:53:00,51.0,50.0,-100.00,NE,47,3.0,11.0,98,0.06,,,0.79,0.000000,,2013-01-15 08:53:00,
2013-01-15 04:02:00,51.0,50.0,-100.00,NE,47,3.0,11.0,98,0.06,,,0.79,0.000000,,2013-01-15 09:02:00,
2013-01-15 04:33:00,50.0,50.0,-100.00,ENE,58,3.0,10.0,99,0.06,,,0.85,0.000000,,2013-01-15 09:33:00,
2013-01-15 04:43:00,50.0,50.0,-100.00,ENE,58,3.0,10.0,99,0.06,,,0.85,0.000000,,2013-01-15 09:43:00,
2013-01-15 04:52:00,50.0,50.0,-100.00,ENE,58,3.0,10.0,99,0.06,,,0.85,0.000000,,2013-01-15 09:52:00,
2013-01-15 05:02:00,50.0,50.0,-100.00,ENE,58,3.0,10.0,99,0.06,,,0.85,0.000000,,2013-01-15 10:02:00,
2013-01-15 05:33:00,48.0,48.0,-100.00,NE,41,2.0,10.0,99,0.02,,,0.86,0.000000,,2013-01-15 10:33:00,
2013-01-15 05:42:00,48.0,48.0,-100.00,NE,41,2.0,10.0,99,0.02,,,0.86,0.000000,,2013-01-15 10:42:00,
2013-01-15 05:52:00,48.0,48.0,-100.00,NE,41,2.0,10.0,99,0.02,,,0.86,0.000000,,2013-01-15 10:52:00,
2013-01-15 06:02:00,48.0,48.0,-100.00,NE,41,2.0,10.0,99,0.02,,,0.86,0.000000,,2013-01-15 11:02:00,
2013-01-15 06:33:00,48.0,48.0,-100.00,NE,52,2.0,6.0,99,0.04,,,0.89,0.000000,,2013-01-15 11:33:00,
2013-01-15 06:43:00,48.0,48.0,-100.00,NE,52,2.0,6.0,99,0.04,,,0.89,0.000000,,2013-01-15 11:43:00,
2013-01-15 06:53:00,48.0,48.0,-100.00,NE,52,2.0,6.0,99,0.04,,,0.89,0.000000,,2013-01-15 11:53:00,
2013-01-15 07:03:00,48.0,48.0,-100.00,NE,52,2.0,6.0,99,0.04,,,0.89,0.000000,,2013-01-15 12:03:00,
2013-01-15 07:23:00,46.0,46.0,-100.00,NNE,24,4.0,8.0,99,0.02,,,0.90,0.000000,,2013-01-15 12:23:00,
2013-01-15 07:33:00,46.0,46.0,-100.00,NNE,24,4.0,8.0,99,0.02,,,0.90,0.000000,,2013-01-15 12:33:00,
2013-01-15 07:43:00,46.0,46.0,-100.00,NNE,24,4.0,8.0,99,0.02,,,0.90,0.000000,,2013-01-15 12:43:00,
2013-01-15 07:53:00,46.0,46.0,-100.00,NNE,24,4.0,8.0,99,0.02,,,0.90,0.000000,,2013-01-15 12:53:00,
2013-01-15 08:03:00,46.0,46.0,-100.00,NNE,24,4.0,8.0,99,0.02,,,0.90,0.000000,,2013-01-15 13:03:00,
2013-01-15 08:33:00,46.0,46.0,-100.00,NE,43,2.0,9.0,99,0.11,,,1.01,1.000000,,2013-01-15 13:33:00,
2013-01-15 08:43:00,46.0,46.0,-100.00,NE,43,2.0,9.0,99,0.11,,,1.01,1.000000,,2013-01-15 13:43:00,
2013-01-15 08:53:00,46.0,46.0,-100.00,NE,43,2.0,9.0,99,0.11,,,1.01,1.000000,,2013-01-15 13:53:00,
2013-01-15 09:03:00,46.0,46.0,-100.00,NE,43,2.0,9.0,99,0.11,,,1.01,1.000000,,2013-01-15 14:03:00,
2013-01-15 09:33:00,46.0,46.0,-100.00,NE,38,2.0,6.0,99,0.05,,,1.06,13.000000,,2013-01-15 14:33:00,
2013-01-15 09:43:00,46.0,46.0,-100.00,NE,38,2.0,6.0,99,0.05,,,1.06,13.000000,,2013-01-15 14:43:00,
2013-01-15 09:54:00,46.0,46.0,-100.00,NE,38,2.0,6.0,99,0.05,,,1.06,13.000000,,2013-01-15 14:54:00,
2013-01-15 10:03:00,46.0,46.0,-100.00,NE,38,2.0,6.0,99,0.05,,,1.06,13.000000,,2013-01-15 15:03:00,
2013-01-15 10:33:00,46.0,45.0,-100.00,NE,43,2.0,7.0,97,0.04,,,1.09,53.000000,,2013-01-15 15:33:00,
2013-01-15 10:43:00,46.0,45.0,-100.00,NE,43,2.0,7.0,97,0.04,,,1.09,53.000000,,2013-01-15 15:43:00,
2013-01-15 10:53:00,46.0,45.0,-100.00,NE,43,2.0,7.0,97,0.04,,,1.09,53.000000,,2013-01-15 15:53:00,
2013-01-15 11:03:00,46.0,45.0,-100.00,NE,43,2.0,7.0,97,0.04,,,1.09,53.000000,,2013-01-15 16:03:00,
2013-01-15 11:33:00,45.0,43.0,-100.00,NE,34,3.0,10.0,94,0.01,,,1.06,39.000000,,2013-01-15 16:33:00,
2013-01-15 11:43:00,45.0,43.0,-100.00,NE,34,3.0,10.0,94,0.01,,,1.06,39.000000,,2013-01-15 16:43:00,
2013-01-15 11:53:00,45.0,43.0,-100.00,NE,34,3.0,10.0,94,0.01,,,1.06,39.000000,,2013-01-15 16:53:00,
2013-01-15 12:03:00,45.0,43.0,-100.00,NE,34,3.0,10.0,94,0.01,,,1.06,39.000000,,2013-01-15 17:03:00,
2013-01-15 12:33:00,45.0,44.0,-100.00,NE,56,2.0,6.0,96,0.05,,,1.01,46.000000,,2013-01-15 17:33:00,
2013-01-15 12:43:00,45.0,44.0,-100.00,NE,56,2.0,6.0,96,0.05,,,1.01,46.000000,,2013-01-15 17:43:00,
2013-01-15 12:53:00,45.0,44.0,-100.00,NE,56,2.0,6.0,96,0.05,,,1.01,46.000000,,2013-01-15 17:53:00,
2013-01-15 13:03:00,45.0,44.0,-100.00,NE,56,2.0,6.0,96,0.05,,,1.01,46.000000,,2013-01-15 18:03:00,
2013-01-15 13:34:00,44.0,43.0,-100.00,NE,41,2.0,6.0,97,0.04,,,1.01,57.000000,,2013-01-15 18:34:00,
2013-01-15 13:43:00,44.0,43.0,-100.00,NE,41,2.0,6.0,97,0.04,,,1.01,57.000000,,2013-01-15 18:43:00,
2013-01-15 13:54:00,44.0,43.0,-100.00,NE,41,2.0,6.0,97,0.04,,,1.01,57.000000,,2013-01-15 18:54:00,
2013-01-15 14:03:00,44.0,43.0,-100.00,NE,41,2.0,6.0,97,0.04,,,1.01,57.000000,,2013-01-15 19:03:00,
2013-01-15 14:33:00,44.0,43.0,-100.00,ENE,62,2.0,9.0,97,0.02,,,1.02,34.000000,,2013-01-15 19:33:00,
2013-01-15 14:43:00,44.0,43.0,-100.00,ENE,62,2.0,9.0,97,0.02,,,1.02,34.000000,,2013-01-15 19:43:00,
2013-01-15 14:53:00,44.0,43.0,-100.00,ENE,62,2.0,9.0,97,0.02,,,1.02,34.000000,,2013-01-15 19:53:00,
2013-01-15 15:03:00,44.0,43.0,-100.00,ENE,62,2.0,9.0,97,0.02,,,1.02,34.000000,,2013-01-15 20:03:00,
2013-01-15 15:33:00,43.0,42.0,-100.00,NE,38,2.0,7.0,98,0.08,,,1.08,43.000000,,2013-01-15 20:33:00,
2013-01-15 15:44:00,43.0,42.0,-100.00,NE,38,2.0,7.0,98,0.08,,,1.08,43.000000,,2013-01-15 20:44:00,
2013-01-15 15:53:00,43.0,42.0,-100.00,NE,38,2.0,7.0,98,0.08,,,1.08,43.000000,,2013-01-15 20:53:00,
2013-01-15 16:03:00,43.0,42.0,-100.00,NE,38,2.0,7.0,98,0.08,,,1.08,43.000000,,2013-01-15 21:03:00,
2013-01-15 16:34:00,43.0,42.0,-100.00,NE,38,3.0,9.0,97,0.01,,,1.00,33.000000,,2013-01-15 21:34:00,
2013-01-15 16:43:00,43.0,42.0,-100.00,NE,38,3.0,9.0,97,0.01,,,1.00,33.000000,,2013-01-15 21:43:00,
2013-01-15 16:53:00,43.0,42.0,-100.00,NE,38,3.0,9.0,97,0.01,,,1.00,33.000000,,2013-01-15 21:53:00,
2013-01-15 17:03:00,43.0,42.0,-100.00,NE,38,3.0,9.0,97,0.01,,,1.00,33.000000,,2013-01-15 22:03:00,
2013-01-15 17:33:00,42.0,41.0,-100.00,NE,43,1.0,9.0,96,0.08,,,1.00,14.000000,,2013-01-15 22:33:00,
2013-01-15 17:43:00,42.0,41.0,-100.00,NE,43,1.0,9.0,96,0.08,,,1.00,14.000000,,2013-01-15 22:43:00,
2013-01-15 17:53:00,42.0,41.0,-100.00,NE,43,1.0,9.0,96,0.08,,,1.00,14.000000,,2013-01-15 22:53:00,
2013-01-15 18:03:00,42.0,41.0,-100.00,NE,43,1.0,9.0,96,0.08,,,1.00,14.000000,,2013-01-15 23:03:00,
2013-01-15 18:33:00,41.0,40.0,-100.00,NE,51,1.0,6.0,98,0.03,,,1.02,1.000000,,2013-01-15 23:33:00,
2013-01-15 18:43:00,41.0,40.0,-100.00,NE,51,1.0,6.0,98,0.03,,,1.02,1.000000,,2013-01-15 23:43:00,
2013-01-15 18:53:00,41.0,40.0,-100.00,NE,51,1.0,6.0,98,0.03,,,1.02,1.000000,,2013-01-15 23:53:00,
2013-01-15 19:03:00,41.0,40.0,-100.00,NE,51,1.0,6.0,98,0.03,,,1.02,1.000000,,2013-01-16 00:03:00,
2013-01-15 19:23:00,41.0,40.0,-100.00,NNE,29,2.0,6.0,98,0.03,,,1.05,0.000000,,2013-01-16 00:23:00,
2013-01-15 19:33:00,41.0,40.0,-100.00,NNE,29,2.0,6.0,98,0.03,,,1.05,0.000000,,2013-01-16 00:33:00,
2013-01-15 19:43:00,41.0,40.0,-100.00,NNE,29,2.0,6.0,98,0.03,,,1.05,0.000000,,2013-01-16 00:43:00,
2013-01-15 19:53:00,41.0,40.0,-100.00,NNE,29,2.0,6.0,98,0.03,,,1.05,0.000000,,2013-01-16 00:53:00,
2013-01-15 20:03:00,41.0,40.0,-100.00,NNE,29,2.0,6.0,98,0.03,,,1.05,0.000000,,2013-01-16 01:03:00,
2013-01-15 20:33:00,41.0,40.0,-100.00,NE,42,2.0,7.0,98,0.01,,,1.04,0.000000,,2013-01-16 01:33:00,
2013-01-15 20:43:00,41.0,40.0,-100.00,NE,42,2.0,7.0,98,0.01,,,1.04,0.000000,,2013-01-16 01:43:00,
2013-01-15 20:53:00,41.0,40.0,-100.00,NE,42,2.0,7.0,98,0.01,,,1.04,0.000000,,2013-01-16 01:53:00,
2013-01-15 21:03:00,41.0,40.0,-100.00,NE,42,2.0,7.0,98,0.01,,,1.04,0.000000,,2013-01-16 02:03:00,
2013-01-15 21:33:00,40.0,39.0,-100.00,NE,53,2.0,5.0,98,0.02,,,1.06,0.000000,,2013-01-16 02:33:00,
2013-01-15 21:43:00,40.0,39.0,-100.00,NE,53,2.0,5.0,98,0.02,,,1.06,0.000000,,2013-01-16 02:43:00,
2013-01-15 21:53:00,40.0,39.0,-100.00,NE,53,2.0,5.0,98,0.02,,,1.06,0.000000,,2013-01-16 02:53:00,
2013-01-15 22:03:00,40.0,39.0,-100.00,NE,53,2.0,5.0,98,0.02,,,1.06,0.000000,,2013-01-16 03:03:00,
2013-01-15 22:23:00,40.0,39.0,-100.00,NNE,32,1.0,6.0,98,0.01,,,1.07,0.000000,,2013-01-16 03:23:00,
2013-01-15 22:33:00,40.0,39.0,-100.00,NNE,32,1.0,6.0,98,0.01,,,1.07,0.000000,,2013-01-16 03:33:00,
2013-01-15 22:43:00,40.0,39.0,-100.00,NNE,32,1.0,6.0,98,0.01,,,1.07,0.000000,,2013-01-16 03:43:00,
2013-01-15 22:53:00,40.0,39.0,-100.00,NNE,32,1.0,6.0,98,0.01,,,1.07,0.000000,,2013-01-16 03:53:00,
2013-01-15 23:02:00,40.0,39.0,-100.00,NNE,32,1.0,6.0,98,0.01,,,1.07,0.000000,,2013-01-16 04:02:00,
2013-01-15 23:33:00,41.0,40.0,-100.00,NNE,22,2.0,4.0,98,0.03,,,1.04,0.000000,,2013-01-16 04:33:00,
2013-01-15 23:42:00,41.0,40.0,-100.00,NNE,22,2.0,4.0,98,0.03,,,1.04,0.000000,,2013-01-16 04:42:00,
2013-01-15 23:53:00,41.0,40.0,-100.00,NNE,22,2.0,4.0,98,0.03,,,1.04,0.000000,,2013-01-16 04:53:00,